Time;durP1;ratioP1;P1;durP2;ratioP2;P2;SDS_P1;SDS_P2;PMS_P1;PMS_P2;Temp;Humidity;BMP_temperature;BMP_pressure;BME280_temperature;BME280_humidity;BME280_pressure;Samples;Min_cycle;Max_cycle;Signal;HPM_P1;HPM_P2
2023/09/24 00:01:16;;;;;;;5.63;3.17;;;13.30;89.00;;;;;;5115326;28;20023;-30
2023/09/24 00:03:42;;;;;;;5.28;2.90;;;13.20;88.80;;;;;;5115674;28;20076;-28
2023/09/24 00:06:08;;;;;;;4.22;3.13;;;13.20;88.80;;;;;;5115653;28;20050;-29
2023/09/24 00:08:35;;;;;;;4.55;3.03;;;13.20;88.80;;;;;;5115644;28;20084;-31
2023/09/24 00:11:02;;;;;;;6.97;3.30;;;13.10;88.80;;;;;;5115586;28;20022;-33
2023/09/24 00:13:28;;;;;;;4.78;3.13;;;13.10;88.80;;;;;;5115272;28;20028;-32
2023/09/24 00:15:54;;;;;;;5.80;3.25;;;13.10;88.80;;;;;;5115525;28;20374;-31
2023/09/24 00:18:20;;;;;;;5.78;3.05;;;13.00;89.40;;;;;;5115774;28;20023;-30
2023/09/24 00:20:46;;;;;;;4.75;3.05;;;13.00;88.80;;;;;;5115278;28;20028;-31
2023/09/24 00:23:14;;;;;;;4.13;3.10;;;13.00;88.80;;;;;;5115337;28;20020;-34
2023/09/24 00:25:40;;;;;;;6.05;3.38;;;13.00;88.80;;;;;;5115213;28;20158;-29
2023/09/24 00:28:07;;;;;;;4.50;3.08;;;13.00;88.80;;;;;;5115096;28;20071;-30
2023/09/24 00:30:34;;;;;;;4.38;3.15;;;13.00;88.80;;;;;;5115027;28;20031;-30
2023/09/24 00:33:00;;;;;;;4.25;3.50;;;12.90;88.80;;;;;;5115427;28;20452;-32
2023/09/24 00:35:26;;;;;;;5.43;3.42;;;13.00;88.90;;;;;;5115126;28;20038;-32
2023/09/24 00:37:51;;;;;;;5.85;3.25;;;12.90;88.90;;;;;;5115195;28;20385;-34
2023/09/24 00:40:18;;;;;;;8.55;3.97;;;12.90;88.90;;;;;;5114852;28;20024;-33
2023/09/24 00:42:44;;;;;;;4.97;2.97;;;12.90;88.90;;;;;;5115184;28;20027;-34
2023/09/24 00:45:11;;;;;;;3.67;3.08;;;12.90;88.90;;;;;;5115282;28;20431;-32
2023/09/24 00:47:41;;;;;;;4.35;3.53;;;12.90;88.90;;;;;;5114675;28;20473;-32
2023/09/24 00:50:08;;;;;;;7.03;3.28;;;12.90;88.90;;;;;;5114696;28;20039;-39
2023/09/24 00:52:35;;;;;;;4.13;3.17;;;12.90;88.90;;;;;;5115113;28;20490;-34
2023/09/24 00:55:04;;;;;;;5.30;3.40;;;12.90;89.00;;;;;;5114596;28;20030;-36
2023/09/24 00:57:32;;;;;;;4.38;3.50;;;12.90;89.00;;;;;;5114551;28;20031;-33
2023/09/24 00:59:59;;;;;;;5.75;3.38;;;12.90;89.00;;;;;;5114403;28;20027;-33
2023/09/24 01:02:25;;;;;;;6.65;3.40;;;12.90;88.90;;;;;;5113999;28;20028;-35
2023/09/24 01:04:53;;;;;;;6.07;3.67;;;12.90;89.50;;;;;;5114531;28;20030;-31
2023/09/24 01:07:21;;;;;;;8.45;3.50;;;12.90;89.00;;;;;;5114501;28;20429;-29
2023/09/24 01:09:48;;;;;;;4.68;3.55;;;12.90;89.00;;;;;;5114492;28;20388;-30
2023/09/24 01:12:25;;;;;;;4.85;4.05;;;12.80;88.90;;;;;;5095112;28;20552;-30
2023/09/24 01:14:53;;;;;;;5.65;3.25;;;12.80;89.00;;;;;;5114871;28;20476;-28
2023/09/24 01:17:20;;;;;;;5.63;3.65;;;12.80;89.00;;;;;;5114210;28;20027;-30
2023/09/24 01:19:46;;;;;;;6.55;3.72;;;12.80;89.00;;;;;;5095576;28;20106;-31
2023/09/24 01:22:12;;;;;;;6.28;4.05;;;12.80;89.00;;;;;;5114089;28;20137;-34
2023/09/24 01:24:38;;;;;;;8.90;3.90;;;12.80;89.00;;;;;;5114125;28;20374;-32
2023/09/24 01:27:04;;;;;;;8.65;3.92;;;12.70;89.00;;;;;;5113850;28;20132;-32
2023/09/24 01:29:30;;;;;;;6.28;3.90;;;12.80;89.00;;;;;;5114093;28;20483;-35
2023/09/24 01:31:55;;;;;;;7.13;4.15;;;12.70;88.90;;;;;;5113854;28;20043;-29
2023/09/24 01:34:23;;;;;;;5.93;3.75;;;12.70;88.90;;;;;;5095424;28;20377;-29
2023/09/24 01:36:49;;;;;;;7.00;3.83;;;12.70;88.90;;;;;;5113754;28;20032;-29
2023/09/24 01:39:19;;;;;;;7.25;4.10;;;12.70;88.90;;;;;;5113957;28;20573;-33
2023/09/24 01:41:45;;;;;;;5.32;4.07;;;12.70;88.90;;;;;;5095440;28;20027;-30
2023/09/24 01:44:13;;;;;;;4.97;3.80;;;12.60;88.90;;;;;;5113625;28;20019;-30
2023/09/24 01:46:38;;;;;;;4.88;3.80;;;12.60;89.00;;;;;;5113658;28;20028;-33
2023/09/24 01:49:04;;;;;;;7.13;4.03;;;12.60;89.00;;;;;;5113572;28;20481;-33
2023/09/24 01:51:31;;;;;;;4.78;3.90;;;12.50;89.00;;;;;;5113564;28;20438;-31
2023/09/24 01:53:59;;;;;;;6.28;4.10;;;12.50;89.00;;;;;;5113660;28;20500;-31
2023/09/24 01:56:24;;;;;;;8.13;3.67;;;12.50;88.90;;;;;;5095060;28;20066;-34
2023/09/24 01:58:51;;;;;;;5.05;3.80;;;12.50;89.00;;;;;;5113309;28;20063;-30
2023/09/24 02:01:17;;;;;;;7.22;3.88;;;12.50;89.00;;;;;;5113091;28;20072;-33
2023/09/24 02:03:45;;;;;;;6.90;3.63;;;12.40;88.90;;;;;;5113598;28;20019;-32
2023/09/24 02:06:14;;;;;;;6.28;4.25;;;12.40;88.90;;;;;;5113557;28;20076;-31
2023/09/24 02:08:39;;;;;;;5.75;3.90;;;12.40;88.90;;;;;;5113073;28;20088;-30
2023/09/24 02:11:05;;;;;;;6.20;4.15;;;12.30;88.90;;;;;;5094759;28;20126;-33
2023/09/24 02:13:31;;;;;;;5.55;4.03;;;12.30;88.90;;;;;;5113362;28;20030;-32
2023/09/24 02:15:56;;;;;;;4.88;3.72;;;12.20;88.90;;;;;;5113088;28;20038;-30
2023/09/24 02:18:22;;;;;;;6.90;4.10;;;12.20;88.90;;;;;;5112688;28;20023;-29
2023/09/24 02:20:51;;;;;;;5.57;4.03;;;12.20;88.90;;;;;;5113035;28;20055;-29
2023/09/24 02:23:17;;;;;;;8.20;4.40;;;12.20;89.00;;;;;;5111723;28;20035;-30
2023/09/24 02:25:44;;;;;;;8.00;3.83;;;12.20;89.00;;;;;;5112999;28;20024;-31
2023/09/24 02:28:10;;;;;;;5.40;4.20;;;12.10;89.00;;;;;;5112799;28;20082;-30
2023/09/24 02:30:36;;;;;;;7.05;4.40;;;12.10;89.00;;;;;;5112656;28;20437;-29
2023/09/24 02:33:02;;;;;;;6.82;4.07;;;12.10;88.90;;;;;;5113092;28;20034;-32
2023/09/24 02:35:29;;;;;;;6.18;4.15;;;12.10;89.00;;;;;;5112626;28;20073;-30
2023/09/24 02:37:54;;;;;;;5.78;4.20;;;12.10;89.00;;;;;;5112638;28;20430;-30
2023/09/24 02:40:22;;;;;;;8.00;4.72;;;12.00;89.00;;;;;;5112780;28;20062;-30
2023/09/24 02:42:52;;;;;;;6.65;3.58;;;12.10;89.00;;;;;;5112871;28;20131;-32
2023/09/24 02:45:18;;;;;;;8.95;4.10;;;12.00;89.00;;;;;;5112315;28;20158;-29
2023/09/24 02:47:45;;;;;;;5.53;3.80;;;12.00;89.00;;;;;;5112773;28;20122;-32
2023/09/24 02:50:14;;;;;;;6.43;3.97;;;12.00;89.00;;;;;;5112673;28;20020;-30
2023/09/24 02:52:45;;;;;;;7.07;4.00;;;12.00;89.00;;;;;;5112685;28;20051;-31
2023/09/24 02:55:13;;;;;;;5.55;3.75;;;12.00;89.10;;;;;;5112200;28;20036;-30
2023/09/24 02:57:39;;;;;;;8.60;4.72;;;12.00;89.10;;;;;;5112451;28;20039;-30
2023/09/24 03:00:52;;;;;;;6.82;4.40;;;12.00;89.00;;;;;;5112214;28;20027;-31
2023/09/24 03:03:00;;;;;;;9.00;4.80;;;11.90;89.00;;;;;;5101165;28;20031;-30
2023/09/24 03:05:26;;;;;;;5.70;4.32;;;11.90;89.00;;;;;;5112535;28;20030;-29
2023/09/24 03:07:53;;;;;;;6.60;4.50;;;11.90;89.00;;;;;;5112294;28;20413;-29
2023/09/24 03:10:19;;;;;;;5.82;3.80;;;11.90;89.00;;;;;;5111874;28;20024;-30
2023/09/24 03:12:46;;;;;;;8.35;4.38;;;11.80;88.90;;;;;;5112152;28;20028;-32
2023/09/24 03:15:12;;;;;;;6.68;4.00;;;11.80;89.00;;;;;;5112379;28;20024;-31
2023/09/24 03:17:39;;;;;;;6.63;3.88;;;11.70;89.00;;;;;;5111881;28;20032;-34
2023/09/24 03:20:15;;;;;;;6.75;4.10;;;11.70;89.00;;;;;;5111785;28;20028;-31
2023/09/24 03:22:48;;;;;;;8.73;4.00;;;11.70;89.00;;;;;;5112160;28;20076;-29
2023/09/24 03:25:40;;;;;;;6.30;4.60;;;11.60;89.10;;;;;;5111768;28;20064;-28
2023/09/24 03:28:05;;;;;;;5.20;4.25;;;11.60;89.00;;;;;;5090612;28;20070;-34
2023/09/24 03:30:31;;;;;;;6.10;4.03;;;11.50;89.00;;;;;;5093507;28;20489;-35
2023/09/24 03:32:58;;;;;;;5.97;4.00;;;11.50;89.00;;;;;;5111883;28;20046;-29
2023/09/24 03:35:25;;;;;;;7.22;4.32;;;11.50;89.00;;;;;;5096594;28;20357;-32
2023/09/24 03:37:52;;;;;;;5.88;4.25;;;11.40;89.00;;;;;;5116069;28;20036;-30
2023/09/24 03:40:20;;;;;;;5.85;4.10;;;11.40;89.10;;;;;;5115876;28;20020;-29
2023/09/24 03:42:47;;;;;;;5.97;3.95;;;11.40;89.10;;;;;;5116473;28;20028;-30
2023/09/24 03:45:15;;;;;;;5.95;4.10;;;11.40;89.10;;;;;;5116152;28;20072;-31
2023/09/24 03:47:41;;;;;;;6.78;3.83;;;11.30;89.10;;;;;;5115737;28;20139;-31
2023/09/24 03:50:13;;;;;;;5.70;3.97;;;11.30;89.10;;;;;;5116106;28;20545;-30
2023/09/24 03:52:42;;;;;;;5.95;4.38;;;11.30;89.00;;;;;;5116167;28;20196;-31
2023/09/24 03:55:08;;;;;;;6.70;4.15;;;11.30;89.10;;;;;;5115693;28;20028;-33
2023/09/24 03:57:34;;;;;;;8.13;4.30;;;11.20;89.60;;;;;;5115875;28;20433;-31
2023/09/24 04:00:00;;;;;;;5.90;4.25;;;11.20;89.10;;;;;;5115526;28;20032;-30
2023/09/24 04:02:28;;;;;;;6.65;4.35;;;11.20;89.10;;;;;;5115756;28;20042;-32
2023/09/24 04:04:54;;;;;;;7.70;4.38;;;11.20;89.20;;;;;;5115704;28;20444;-35
2023/09/24 04:07:20;;;;;;;7.45;4.13;;;11.10;89.10;;;;;;5115812;28;20046;-31
2023/09/24 04:09:47;;;;;;;5.80;4.15;;;11.10;89.10;;;;;;5115435;28;20506;-31
2023/09/24 04:12:13;;;;;;;7.00;4.20;;;11.10;89.10;;;;;;5115706;28;20027;-29
2023/09/24 04:14:39;;;;;;;5.55;3.88;;;11.10;89.10;;;;;;5115465;28;20492;-33
2023/09/24 04:17:09;;;;;;;7.32;4.00;;;11.20;89.10;;;;;;5115636;28;20016;-30
2023/09/24 04:19:34;;;;;;;5.38;4.03;;;11.10;89.00;;;;;;5115176;28;20033;-32
2023/09/24 04:22:00;;;;;;;8.55;4.35;;;11.10;89.00;;;;;;5096955;28;20054;-31
2023/09/24 04:24:26;;;;;;;6.63;5.15;;;11.10;89.10;;;;;;5115217;28;20032;-36
2023/09/24 04:26:52;;;;;;;8.60;5.85;;;11.10;89.10;;;;;;5115191;28;20441;-29
2023/09/24 04:29:18;;;;;;;8.05;4.80;;;11.10;89.10;;;;;;5114937;28;20039;-33
2023/09/24 04:31:44;;;;;;;6.07;4.53;;;11.10;89.00;;;;;;5096740;28;20042;-29
2023/09/24 04:34:12;;;;;;;6.13;4.63;;;11.10;89.00;;;;;;5115069;28;20034;-32
2023/09/24 04:36:39;;;;;;;5.80;3.92;;;11.00;89.00;;;;;;5115353;28;20396;-31
2023/09/24 04:39:06;;;;;;;8.77;4.13;;;11.00;88.90;;;;;;5115261;28;20028;-32
2023/09/24 04:41:32;;;;;;;7.78;4.28;;;11.00;89.00;;;;;;5115138;28;20097;-29
2023/09/24 04:43:58;;;;;;;6.97;4.60;;;11.00;89.00;;;;;;5096975;28;20438;-29
2023/09/24 04:46:24;;;;;;;6.07;4.20;;;10.90;89.00;;;;;;5114207;28;20023;-31
2023/09/24 04:48:50;;;;;;;5.07;3.90;;;10.90;89.00;;;;;;5114958;28;20039;-30
2023/09/24 04:51:15;;;;;;;6.10;4.40;;;10.90;89.10;;;;;;5114735;28;20447;-33
2023/09/24 04:53:41;;;;;;;6.60;4.40;;;10.90;89.10;;;;;;5114623;28;20063;-32
2023/09/24 04:56:07;;;;;;;6.25;4.13;;;10.90;89.10;;;;;;5114755;28;20448;-29
2023/09/24 04:58:33;;;;;;;6.35;3.85;;;10.90;89.10;;;;;;5114600;28;20062;-34
2023/09/24 05:01:08;;;;;;;6.72;4.40;;;10.90;89.10;;;;;;5114686;28;20023;-29
2023/09/24 05:03:35;;;;;;;5.85;4.65;;;10.80;89.00;;;;;;5114884;28;20448;-31
2023/09/24 05:06:03;;;;;;;5.90;4.22;;;10.80;89.00;;;;;;5096099;28;20367;-31
2023/09/24 05:08:29;;;;;;;6.20;4.57;;;10.80;89.10;;;;;;5114687;28;20416;-29
2023/09/24 05:10:54;;;;;;;7.63;4.40;;;10.80;89.10;;;;;;5114542;28;20023;-29
2023/09/24 05:13:20;;;;;;;6.15;4.00;;;10.80;89.10;;;;;;5114263;28;20028;-30
2023/09/24 05:15:51;;;;;;;6.20;4.20;;;10.70;89.10;;;;;;5114359;28;20027;-29
2023/09/24 05:18:16;;;;;;;5.63;4.05;;;10.70;89.10;;;;;;5114453;28;20023;-31
2023/09/24 05:20:42;;;;;;;5.60;3.95;;;10.70;89.10;;;;;;5114329;28;20102;-30
2023/09/24 05:23:08;;;;;;;7.28;4.05;;;10.70;89.10;;;;;;5114105;28;20111;-30
2023/09/24 05:25:36;;;;;;;8.32;3.92;;;10.70;89.00;;;;;;5114130;28;20108;-30
2023/09/24 05:28:02;;;;;;;7.88;4.40;;;10.70;89.10;;;;;;5113805;28;20047;-29
2023/09/24 05:30:27;;;;;;;6.70;4.47;;;10.70;89.10;;;;;;5113835;28;20024;-31
2023/09/24 05:32:53;;;;;;;6.45;4.45;;;10.70;89.20;;;;;;5113944;28;20119;-30
2023/09/24 05:35:21;;;;;;;6.97;4.43;;;10.70;89.20;;;;;;5095493;28;20031;-35
2023/09/24 05:37:47;;;;;;;6.32;4.47;;;10.60;89.10;;;;;;5113810;28;20056;-30
2023/09/24 05:40:14;;;;;;;6.90;4.45;;;10.70;89.10;;;;;;5113671;28;20027;-32
2023/09/24 05:42:41;;;;;;;5.60;4.20;;;10.70;89.10;;;;;;5114144;28;20040;-31
2023/09/24 05:45:07;;;;;;;6.38;4.57;;;10.70;89.00;;;;;;5113622;28;20030;-32
2023/09/24 05:47:33;;;;;;;6.25;4.55;;;10.70;89.00;;;;;;5113833;28;20031;-31
2023/09/24 05:49:59;;;;;;;6.43;4.80;;;10.70;89.00;;;;;;5113562;28;20492;-32
2023/09/24 05:52:25;;;;;;;6.43;4.38;;;10.70;88.90;;;;;;5095083;28;20035;-29
2023/09/24 05:54:51;;;;;;;6.28;4.65;;;10.70;89.00;;;;;;5113747;28;20020;-29
2023/09/24 05:57:17;;;;;;;6.82;5.22;;;10.70;89.00;;;;;;5113260;28;20567;-31
2023/09/24 05:59:43;;;;;;;7.22;4.55;;;10.70;88.90;;;;;;5113156;28;20034;-31
2023/09/24 06:02:09;;;;;;;6.95;4.50;;;10.70;88.90;;;;;;5113265;28;20031;-29
2023/09/24 06:04:34;;;;;;;7.55;5.28;;;10.70;88.80;;;;;;5113280;28;20016;-29
2023/09/24 06:07:00;;;;;;;7.75;5.10;;;10.70;88.80;;;;;;5094788;28;20111;-30
2023/09/24 06:09:28;;;;;;;6.30;4.65;;;10.80;88.80;;;;;;5113156;28;20039;-30
2023/09/24 06:11:54;;;;;;;6.13;4.70;;;10.80;88.80;;;;;;5094596;28;20031;-29
2023/09/24 06:14:20;;;;;;;6.63;4.82;;;10.90;88.90;;;;;;5112885;28;20024;-32
2023/09/24 06:16:46;;;;;;;5.68;4.63;;;10.90;88.80;;;;;;5113496;28;20027;-30
2023/09/24 06:19:11;;;;;;;6.80;4.55;;;11.00;88.80;;;;;;5112941;28;20024;-35
2023/09/24 06:21:37;;;;;;;6.47;4.95;;;11.00;88.80;;;;;;5112973;28;20477;-30
2023/09/24 06:24:03;;;;;;;6.97;4.90;;;11.10;88.80;;;;;;5112978;28;20393;-38
2023/09/24 06:26:30;;;;;;;7.35;5.05;;;11.10;88.60;;;;;;5112943;28;20024;-31
2023/09/24 06:28:56;;;;;;;7.53;5.05;;;11.20;88.60;;;;;;5112731;28;20047;-32
2023/09/24 06:31:22;;;;;;;6.65;4.85;;;11.20;88.60;;;;;;5094576;28;20039;-32
2023/09/24 06:33:48;;;;;;;7.22;5.40;;;11.30;88.60;;;;;;5112761;28;20123;-33
2023/09/24 06:36:14;;;;;;;6.07;4.78;;;11.40;88.50;;;;;;5112672;28;20035;-37
2023/09/24 06:38:39;;;;;;;6.95;4.82;;;11.40;88.50;;;;;;5112719;28;20106;-35
2023/09/24 06:41:05;;;;;;;8.88;5.30;;;11.50;88.50;;;;;;5112511;28;20030;-34
2023/09/24 06:43:32;;;;;;;6.47;5.30;;;11.60;88.40;;;;;;5112627;28;20028;-32
2023/09/24 06:45:58;;;;;;;9.30;6.15;;;11.70;88.40;;;;;;5112343;28;20034;-28
2023/09/24 06:48:25;;;;;;;7.97;5.53;;;11.70;88.30;;;;;;5112429;28;20032;-29
2023/09/24 06:50:53;;;;;;;7.95;5.03;;;11.80;88.20;;;;;;5112371;28;20036;-36
2023/09/24 06:53:19;;;;;;;7.38;5.38;;;11.90;88.20;;;;;;5093959;28;20296;-30
2023/09/24 06:55:45;;;;;;;7.45;5.32;;;11.90;88.10;;;;;;5112448;28;20457;-31
2023/09/24 06:58:12;;;;;;;7.70;5.60;;;11.90;88.00;;;;;;5112574;28;20557;-30
2023/09/24 07:00:38;;;;;;;7.28;4.70;;;11.90;88.00;;;;;;5112497;28;20469;-30
2023/09/24 07:03:05;;;;;;;7.90;5.38;;;12.00;88.00;;;;;;5112505;28;20020;-30
2023/09/24 07:05:31;;;;;;;7.90;5.10;;;12.00;87.90;;;;;;5112191;28;20020;-34
2023/09/24 07:07:57;;;;;;;8.30;4.95;;;12.10;88.00;;;;;;5112411;28;20046;-32
2023/09/24 07:10:23;;;;;;;5.28;4.30;;;12.10;87.90;;;;;;5111716;28;20485;-39
2023/09/24 07:12:49;;;;;;;5.90;4.70;;;12.20;87.90;;;;;;5112114;28;20529;-31
2023/09/24 07:15:16;;;;;;;7.32;4.88;;;12.20;87.80;;;;;;5112307;28;20040;-30
2023/09/24 07:17:42;;;;;;;9.15;4.63;;;12.20;87.70;;;;;;5112094;28;20034;-33
2023/09/24 07:20:08;;;;;;;4.88;4.35;;;12.30;87.70;;;;;;5111772;28;20032;-33
2023/09/24 07:22:34;;;;;;;5.20;4.70;;;12.30;87.60;;;;;;5111991;28;20160;-33
2023/09/24 07:24:59;;;;;;;6.55;4.97;;;12.30;87.60;;;;;;5112046;28;20084;-39
2023/09/24 07:27:25;;;;;;;6.00;4.45;;;12.40;87.60;;;;;;5111808;28;20063;-34
2023/09/24 07:29:51;;;;;;;7.50;5.13;;;12.40;87.50;;;;;;5111810;28;20026;-34
2023/09/24 07:32:16;;;;;;;5.63;4.70;;;12.40;87.60;;;;;;5111850;28;20108;-33
2023/09/24 07:34:46;;;;;;;5.28;4.72;;;12.50;87.60;;;;;;5111784;28;20560;-36
2023/09/24 07:37:12;;;;;;;6.10;5.20;;;12.50;87.60;;;;;;5111614;28;20024;-35
2023/09/24 07:39:38;;;;;;;5.53;4.90;;;12.50;87.60;;;;;;5111479;28;20034;-30
2023/09/24 07:42:03;;;;;;;7.32;4.47;;;12.50;87.60;;;;;;5111751;28;20447;-30
2023/09/24 07:44:29;;;;;;;6.82;4.38;;;12.50;87.60;;;;;;5111790;28;20077;-30
2023/09/24 07:46:55;;;;;;;6.40;4.10;;;12.60;87.60;;;;;;5111570;28;20516;-30
2023/09/24 07:49:20;;;;;;;7.22;4.72;;;12.60;87.60;;;;;;5111613;28;20074;-30
2023/09/24 07:51:46;;;;;;;5.00;4.40;;;12.60;87.50;;;;;;5111387;28;20034;-30
2023/09/24 07:54:13;;;;;;;7.05;4.07;;;12.70;87.50;;;;;;5111365;28;20055;-29
2023/09/24 07:56:41;;;;;;;7.20;5.50;;;12.80;87.50;;;;;;5111649;28;20058;-30
2023/09/24 07:59:07;;;;;;;5.70;4.82;;;12.80;87.40;;;;;;5111494;28;20106;-33
2023/09/24 08:01:33;;;;;;;6.95;4.53;;;12.90;87.30;;;;;;5111677;28;20099;-30
2023/09/24 08:03:59;;;;;;;5.50;4.00;;;12.90;87.30;;;;;;5111438;28;20027;-31
2023/09/24 08:06:28;;;;;;;7.43;4.20;;;13.00;87.20;;;;;;5111642;28;20509;-31
2023/09/24 08:08:54;;;;;;;8.45;4.30;;;13.10;87.20;;;;;;5111530;28;20023;-31
2023/09/24 08:11:19;;;;;;;5.93;4.18;;;13.10;87.10;;;;;;5111605;28;20031;-30
2023/09/24 08:13:45;;;;;;;6.00;4.22;;;13.20;87.00;;;;;;5111564;28;20039;-33
2023/09/24 08:16:10;;;;;;;5.75;4.28;;;13.20;86.90;;;;;;5111429;28;20508;-32
2023/09/24 08:18:36;;;;;;;8.88;3.83;;;13.30;86.90;;;;;;5111360;28;20028;-34
2023/09/24 08:21:02;;;;;;;4.80;3.35;;;13.40;86.90;;;;;;5112818;28;20176;-30
2023/09/24 08:23:27;;;;;;;5.38;3.63;;;13.40;86.80;;;;;;5115205;28;20023;-30
2023/09/24 08:25:53;;;;;;;5.30;3.53;;;13.40;86.70;;;;;;5115612;28;20469;-30
2023/09/24 08:28:19;;;;;;;4.80;3.80;;;13.50;86.60;;;;;;5115079;28;20571;-34
2023/09/24 08:30:45;;;;;;;3.85;3.45;;;13.60;86.60;;;;;;5115032;28;20028;-30
2023/09/24 08:33:10;;;;;;;4.53;3.78;;;13.70;86.50;;;;;;5115398;28;20027;-29
2023/09/24 08:35:36;;;;;;;6.70;4.25;;;13.70;86.40;;;;;;5115007;28;20023;-31
2023/09/24 08:38:02;;;;;;;5.32;3.53;;;13.80;86.40;;;;;;5114848;28;20456;-32
2023/09/24 08:40:30;;;;;;;4.55;2.67;;;13.80;86.30;;;;;;5114776;28;20063;-33
2023/09/24 08:42:56;;;;;;;4.85;3.00;;;13.90;86.20;;;;;;5096648;28;20501;-32
2023/09/24 08:45:26;;;;;;;5.50;3.45;;;14.00;86.10;;;;;;5114680;28;20028;-33
2023/09/24 08:47:52;;;;;;;4.55;2.90;;;14.00;86.00;;;;;;5114753;28;20428;-31
2023/09/24 08:50:18;;;;;;;4.00;2.78;;;14.10;85.80;;;;;;5114654;28;20019;-39
2023/09/24 08:52:45;;;;;;;5.47;2.70;;;14.20;85.80;;;;;;5114711;28;20075;-32
2023/09/24 08:55:12;;;;;;;6.40;2.67;;;14.20;85.60;;;;;;5114366;28;20525;-30
2023/09/24 08:57:39;;;;;;;4.35;2.53;;;14.30;85.50;;;;;;5114546;28;20047;-36
2023/09/24 09:00:06;;;;;;;3.20;2.55;;;14.40;85.40;;;;;;5096224;28;20156;-32
2023/09/24 09:02:35;;;;;;;4.03;2.83;;;14.50;85.20;;;;;;5114910;28;20027;-31
2023/09/24 09:05:04;;;;;;;5.07;2.53;;;14.60;85.00;;;;;;5114479;28;20031;-29
2023/09/24 09:07:30;;;;;;;2.97;2.15;;;14.60;84.90;;;;;;5114384;28;20028;-32
2023/09/24 09:09:59;;;;;;;4.55;2.30;;;14.70;84.70;;;;;;5114363;28;20031;-31
2023/09/24 09:12:25;;;;;;;7.03;2.20;;;14.80;84.60;;;;;;5114538;28;20031;-33
2023/09/24 09:14:51;;;;;;;4.95;2.15;;;14.90;84.40;;;;;;5114316;28;20016;-37
2023/09/24 09:17:17;;;;;;;4.72;2.00;;;15.00;84.20;;;;;;5114268;28;20089;-30
2023/09/24 09:19:48;;;;;;;5.05;1.80;;;15.00;83.90;;;;;;5114300;28;20020;-31
2023/09/24 09:22:27;;;;;;;2.75;2.10;;;15.10;83.60;;;;;;5114080;28;20027;-32
2023/09/24 09:25:04;;;;;;;3.65;2.10;;;15.20;84.10;;;;;;5114072;28;20055;-34
2023/09/24 09:27:36;;;;;;;2.55;1.80;;;15.30;83.20;;;;;;5114157;28;20036;-34
2023/09/24 09:30:16;;;;;;;3.65;1.70;;;15.40;82.90;;;;;;5095584;28;20024;-29
2023/09/24 09:32:43;;;;;;;2.13;1.42;;;15.50;82.80;;;;;;5113558;28;20032;-31
2023/09/24 09:35:10;;;;;;;2.97;1.67;;;15.60;82.60;;;;;;5114235;28;20047;-29
2023/09/24 09:37:39;;;;;;;3.17;1.42;;;15.70;82.40;;;;;;5113812;28;20039;-30
2023/09/24 09:40:06;;;;;;;3.83;1.77;;;15.80;82.80;;;;;;5114011;28;20023;-33
2023/09/24 09:42:35;;;;;;;3.63;1.33;;;15.80;81.90;;;;;;5113819;28;20050;-30
2023/09/24 09:45:05;;;;;;;3.13;1.60;;;15.90;81.70;;;;;;5113945;28;20058;-31
2023/09/24 09:47:37;;;;;;;1.40;1.00;;;16.00;81.50;;;;;;5113857;28;20039;-30
2023/09/24 09:50:05;;;;;;;2.60;1.55;;;16.10;81.30;;;;;;5113797;28;20091;-34
2023/09/24 09:52:39;;;;;;;2.78;1.58;;;16.20;81.10;;;;;;5113734;28;20020;-32
2023/09/24 09:55:06;;;;;;;3.47;2.00;;;16.30;80.70;;;;;;5113471;28;20496;-35
2023/09/24 09:57:33;;;;;;;4.55;1.85;;;16.30;80.50;;;;;;5113443;28;20024;-29
2023/09/24 10:00:05;;;;;;;3.90;1.60;;;16.40;80.40;;;;;;5113674;28;20059;-38
2023/09/24 10:02:32;;;;;;;3.88;1.70;;;16.50;80.10;;;;;;5113373;28;20050;-37
2023/09/24 10:04:59;;;;;;;5.28;1.75;;;16.50;80.00;;;;;;5113973;28;20047;-33
2023/09/24 10:07:25;;;;;;;1.95;1.30;;;16.60;79.70;;;;;;5113959;28;20022;-31
2023/09/24 10:09:50;;;;;;;4.05;1.48;;;16.70;79.50;;;;;;5113364;28;20244;-31
2023/09/24 10:12:37;;;;;;;5.32;1.50;;;16.70;79.30;;;;;;5113306;28;20023;-31
2023/09/24 10:15:28;;;;;;;2.20;1.50;;;16.80;78.90;;;;;;5113410;28;20538;-36
2023/09/24 10:18:22;;;;;;;2.40;1.42;;;16.80;78.80;;;;;;5112965;28;20477;-34
2023/09/24 10:20:53;;;;;;;2.53;1.50;;;16.80;78.50;;;;;;5113060;28;20368;-33
2023/09/24 10:23:30;;;;;;;3.78;1.50;;;16.90;78.40;;;;;;5113046;28;20066;-34
2023/09/24 10:26:01;;;;;;;3.05;1.38;;;16.90;78.20;;;;;;5112971;28;20019;-36
2023/09/24 10:28:51;;;;;;;4.28;1.63;;;17.00;78.10;;;;;;5112872;28;20557;-33
2023/09/24 10:31:21;;;;;;;2.05;1.30;;;17.10;78.00;;;;;;5112790;28;20915;-35
2023/09/24 10:34:02;;;;;;;3.60;1.52;;;17.10;77.80;;;;;;5112876;28;20027;-34
2023/09/24 10:36:33;;;;;;;3.42;1.30;;;17.20;77.60;;;;;;5112735;28;20034;-34
2023/09/24 10:39:13;;;;;;;1.45;1.10;;;17.20;77.50;;;;;;5112605;28;20423;-34
2023/09/24 10:42:10;;;;;;;2.15;1.00;;;17.30;77.30;;;;;;5112569;28;20397;-33
2023/09/24 10:44:39;;;;;;;1.88;1.10;;;17.30;77.10;;;;;;5111724;28;20037;-29
2023/09/24 10:47:23;;;;;;;3.28;1.27;;;17.40;76.80;;;;;;5112315;28;20031;-32
2023/09/24 10:49:49;;;;;;;1.70;0.90;;;17.40;76.50;;;;;;5112410;28;20030;-39
2023/09/24 10:52:14;;;;;;;4.28;1.02;;;17.50;76.60;;;;;;5094077;28;20024;-35
2023/09/24 10:54:45;;;;;;;3.65;1.30;;;17.60;76.30;;;;;;5112457;28;20015;-32
2023/09/24 10:57:21;;;;;;;2.97;1.40;;;17.60;76.00;;;;;;5112354;28;20057;-30
2023/09/24 10:59:47;;;;;;;1.98;0.95;;;17.70;75.80;;;;;;5112378;28;20476;-30
2023/09/24 11:02:16;;;;;;;2.90;0.90;;;17.70;75.60;;;;;;5112134;28;20335;-29
2023/09/24 11:04:42;;;;;;;3.47;0.95;;;17.80;75.30;;;;;;5112148;28;20088;-31
2023/09/24 11:07:11;;;;;;;1.17;0.70;;;17.80;75.10;;;;;;5112226;28;20505;-32
2023/09/24 11:09:37;;;;;;;2.67;0.88;;;17.90;75.10;;;;;;5112298;28;20030;-33
2023/09/24 11:12:09;;;;;;;1.55;0.75;;;17.90;74.80;;;;;;5094061;28;20401;-30
2023/09/24 11:14:35;;;;;;;1.73;0.90;;;18.00;74.50;;;;;;5112139;28;20031;-33
2023/09/24 11:17:01;;;;;;;1.00;0.80;;;18.00;74.50;;;;;;5112195;28;20016;-33
2023/09/24 11:19:48;;;;;;;1.38;0.68;;;18.10;74.40;;;;;;5112565;28;20098;-34
2023/09/24 11:22:21;;;;;;;2.83;1.05;;;18.20;74.00;;;;;;5112284;28;20473;-31
2023/09/24 11:24:50;;;;;;;;;;;18.30;73.80;;;;;;5112697;28;20457;-34
2023/09/24 11:27:17;;;;;;;2.28;0.80;;;18.30;73.90;;;;;;5112179;28;19998;-33
2023/09/24 11:29:56;;;;;;;0.88;0.70;;;18.40;73.80;;;;;;5112248;28;20099;-33
2023/09/24 11:32:27;;;;;;;2.97;1.00;;;18.50;73.30;;;;;;5112217;28;20362;-36
2023/09/24 11:35:18;;;;;;;4.90;1.13;;;18.50;73.20;;;;;;5112173;28;20065;-37
2023/09/24 11:37:58;;;;;;;1.23;0.82;;;18.60;72.70;;;;;;5111965;28;20476;-30
2023/09/24 11:40:28;;;;;;;0.90;0.80;;;18.70;72.30;;;;;;5111686;28;20024;-32
2023/09/24 11:43:00;;;;;;;2.63;0.90;;;18.70;72.20;;;;;;5112155;28;20020;-37
2023/09/24 11:45:48;;;;;;;1.02;0.85;;;18.80;71.80;;;;;;5111940;28;20077;-36
2023/09/24 11:48:36;;;;;;;1.60;0.68;;;18.80;71.40;;;;;;5111991;28;20034;-34
2023/09/24 11:51:02;;;;;;;1.98;0.90;;;18.90;71.70;;;;;;5111674;28;20034;-38
2023/09/24 11:53:28;;;;;;;2.22;0.98;;;18.90;71.40;;;;;;5093399;28;20024;-33
2023/09/24 11:55:56;;;;;;;3.58;0.90;;;19.00;71.20;;;;;;5113202;28;20140;-34
2023/09/24 11:58:26;;;;;;;1.10;0.80;;;19.10;71.00;;;;;;5115872;28;20054;-34
2023/09/24 12:00:52;;;;;;;1.20;0.73;;;19.20;70.90;;;;;;5115791;28;20019;-36
2023/09/24 12:03:18;;;;;;;2.08;0.98;;;19.30;70.50;;;;;;5115810;28;20016;-36
2023/09/24 12:05:44;;;;;;;2.20;1.00;;;19.40;70.10;;;;;;5115619;28;20038;-34
2023/09/24 12:08:10;;;;;;;1.05;0.70;;;19.40;69.70;;;;;;5115924;28;20020;-35
2023/09/24 12:10:41;;;;;;;2.05;1.00;;;19.40;69.60;;;;;;5115789;28;20031;-36
2023/09/24 12:13:08;;;;;;;2.05;1.00;;;19.50;69.40;;;;;;5115908;28;20035;-34
2023/09/24 12:15:35;;;;;;;1.38;0.95;;;19.50;69.10;;;;;;5115816;28;20039;-34
2023/09/24 12:18:04;;;;;;;1.42;0.70;;;19.60;68.90;;;;;;5115508;28;20054;-34
2023/09/24 12:20:34;;;;;;;1.55;0.70;;;19.70;68.80;;;;;;5115553;28;20542;-34
2023/09/24 12:23:01;;;;;;;1.55;1.00;;;19.80;68.60;;;;;;5097923;28;20410;-31
2023/09/24 12:25:28;;;;;;;2.92;0.90;;;19.90;68.30;;;;;;5115742;28;20028;-32
2023/09/24 12:27:53;;;;;;;1.73;1.05;;;20.00;68.10;;;;;;5115261;28;20511;-33
2023/09/24 12:30:19;;;;;;;3.45;1.45;;;20.00;67.70;;;;;;5115541;28;20114;-38
2023/09/24 12:32:44;;;;;;;1.48;0.90;;;20.00;67.60;;;;;;5115190;28;20135;-34
2023/09/24 12:35:13;;;;;;;1.40;0.90;;;20.00;67.70;;;;;;5096881;28;20062;-39
2023/09/24 12:37:41;;;;;;;4.78;0.77;;;20.00;67.50;;;;;;5115075;28;20027;-35
2023/09/24 12:40:08;;;;;;;2.85;1.10;;;20.00;67.50;;;;;;5115260;28;20366;-35
2023/09/24 12:42:39;;;;;;;1.40;1.25;;;20.00;67.30;;;;;;5096658;28;20023;-37
2023/09/24 12:45:06;;;;;;;2.70;1.13;;;20.00;66.80;;;;;;5114972;28;20027;-38
2023/09/24 12:47:33;;;;;;;2.40;1.10;;;20.00;66.50;;;;;;5115007;28;20122;-36
2023/09/24 12:50:04;;;;;;;3.25;1.40;;;19.90;66.20;;;;;;5115058;28;20056;-33
2023/09/24 12:52:48;;;;;;;2.67;1.10;;;19.90;65.90;;;;;;5114625;28;20027;-33